Location Weather   FltPlan.com
Note: Certified Weather is only available to Registered Users.    Weather Page Abbreviations

Metar Reports     TFR Flight Restrictions      LOOK-UP Abbreviations       Plain Text
Click here for more info on FltPlan Go!
KBID 291656Z AUTO 05011G16KT 10SM -RA OVC007 11/11 A2997 RMK AO2 SLP154 P0002 T01110106
KBID 291556Z AUTO 06011KT 8SM -RA OVC007 11/10 A2997 RMK AO2 SLP152 P0008 T01110100
KBID 291456Z AUTO 07010G19KT 7SM -RA OVC007 11/10 A2997 RMK AO2 SLP152 P0001 60002 T01060100 53004 TSNO


Terminal Forecasts     LOOK-UP Abbreviations       Plain Text
Forecast For KBID Not Found

Using Forecast For KPVD
KPVD 291511Z 2915/3012 08010KT P6SM -RA OVC015
FM291800 08012KT P6SM -RA OVC009
FM292000 05009KT 2SM -RA BR OVC025
FM292200 05009KT 2SM BR OVC010
FM300000 03008KT 5SM -DZ BR OVC010



RECENT NOTAMs (new or modified) from the last 12 hours     LOOK-UP Abbreviations  
  No NOTAMs were submitted for KBID in the last 12 hours

NOTAMS      TFR Flight Restrictions     LOOK-UP Abbreviations       Check Approach/Airway FDC Notams for:KBID  
(International notams may be incomplete)
BID 02/014 BID RWY 10/28 SAFETY AREA NOT STD SE 1702081504-PERM



Nearby Departure Airport METARS
KGON 291656Z 05009KT 10SM BKN012 OVC018 13/11 A2998 RMK AO2 SLP152 T01280106
KPVD 291651Z 05010KT 10SM BKN012 OVC017 12/11 A3001 RMK AO2 RAB1552E23 SLP161 P0000 T01220106
KEWB 291653Z 04009KT 10SM -RA BKN009 OVC014 11/10 A2999 RMK AO2 RAE42B44 CIG 006V011 SLP155 P0004 T01110100
KSFZ 291656Z AUTO 07008KT 10SM OVC012 12/09 A3001 RMK AO2 SLP186 T01170089
KMVY 291653Z 06013KT 4SM -RA BR OVC007 11/10 A2997 RMK AO2 SLP147 P0016 T01110100

KGON = GROTON-NEW LONDON GROTON CT
KMVY = MARTHAS VINEYARD VINEYARD HAV MA
KEWB = NEW BEDFORD RGNL NEW BEDFORD MA
KOQU = QUONSET STATE N.KINGSTOWN RI
KSFZ = NORTH CENTRAL STATE PAWTUCKET RI
KPVD = THEODORE FRANCIS GREEN STATE PROVIDENCE RI



GPS Notams     LOOK-UP Abbreviations  
GPS 05/155 ZAB NAV (NTC GPS 17-16/H) GPS (INCLUDING WAAS, GBAS, AND
        ADS-B) MAY NOT BE AVBL WI A 305NM RADIUS CENTERED AT 352114N1163329W
        (HEC 340034) FL400-UNL,
        267NM RADIUS AT FL250,
        187NM RADIUS AT 10000FT,
        150NM RADIUS AT 4000FT AGL,
        146NM RADIUS AT 50FT AGL,
        1705310300-1705311330

GPS 05/166 ZSE NAV (NTTR GPS 17-08) GPS (INCLUDING WAAS, GBAS, AND
        ADS-B) MAY NOT BE AVBL WI A 447NM RADIUS CENTERED AT 371934N1154249W
        (BTY 045059) FL400-UNL,
        383NM RADIUS AT FL250,
        292NM RADIUS AT 10000FT,
        269NM RADIUS AT 4000FT AGL,
        224NM RADIUS AT 50FT AGL.
        1706010430-1706010500

GPS 05/165 ZOA NAV (NTTR GPS 17-08) GPS (INCLUDING WAAS, GBAS, AND
        ADS-B) MAY NOT BE AVBL WI A 447NM RADIUS CENTERED AT 371934N1154249W
        (BTY 045059) FL400-UNL,
        383NM RADIUS AT FL250,
        292NM RADIUS AT 10000FT,
        269NM RADIUS AT 4000FT AGL,
        224NM RADIUS AT 50FT AGL.
        1706010430-1706010500

GPS 05/165 ZOA NAV (NTTR GPS 17-08) GPS (INCLUDING WAAS, GBAS, AND
        ADS-B) MAY NOT BE AVBL WI A 447NM RADIUS CENTERED AT 371934N1154249W
        (BTY 045059) FL400-UNL,
        383NM RADIUS AT FL250,
        292NM RADIUS AT 10000FT,
        269NM RADIUS AT 4000FT AGL,
        224NM RADIUS AT 50FT AGL.
        1706010430-1706010500

GPS 05/163 ZLA NAV (NTTR GPS 17-08) GPS (INCLUDING WAAS, GBAS, AND
        ADS-B) MAY NOT BE AVBL WI A 447NM RADIUS CENTERED AT 371934N1154249W
        (BTY 045059) FL400-UNL,
        383NM RADIUS AT FL250,
        292NM RADIUS AT 10000FT,
        269NM RADIUS AT 4000FT AGL,
        224NM RADIUS AT 50FT AGL.
        1706010430-1706010500

GPS 05/162 ZDV NAV (NTTR GPS 17-08) GPS (INCLUDING WAAS, GBAS, AND
        ADS-B) MAY NOT BE AVBL WI A 447NM RADIUS CENTERED AT 371934N1154249W
        (BTY 045059) FL400-UNL,
        383NM RADIUS AT FL250,
        292NM RADIUS AT 10000FT,
        269NM RADIUS AT 4000FT AGL,
        224NM RADIUS AT 50FT AGL.
        1706010430-1706010500

GPS 05/164 ZLC NAV (NTTR GPS 17-08) GPS (INCLUDING WAAS, GBAS, AND
        ADS-B) MAY NOT BE AVBL WI A 447NM RADIUS CENTERED AT 371934N1154249W
        (BTY 045059) FL400-UNL,
        383NM RADIUS AT FL250,
        292NM RADIUS AT 10000FT,
        269NM RADIUS AT 4000FT AGL,
        224NM RADIUS AT 50FT AGL.
        1706010430-1706010500

GPS 05/160 GPS NAV PRN 18 OUT
        OF SERVICE 1706020130-1706021330